createdAt,value
2022-10-06T00:01:48.162Z,98011.84
2022-10-06T00:06:50.966Z,98023.78
2022-10-06T00:11:52.625Z,98026.03
2022-10-06T00:16:55.131Z,98026.53
2022-10-06T00:21:56.825Z,98038.59
2022-10-06T00:26:58.565Z,98031.72
2022-10-06T00:32:00.239Z,98024.00
2022-10-06T00:37:02.405Z,98032.63
2022-10-06T00:42:04.300Z,98034.53
2022-10-06T00:47:06.416Z,98035.13
2022-10-06T00:52:11.833Z,98034.03
2022-10-06T00:57:14.458Z,98040.09
2022-10-06T01:02:32.653Z,98038.50
2022-10-06T01:07:34.342Z,98040.75
2022-10-06T01:12:36.366Z,98042.44
2022-10-06T01:18:04.227Z,98039.00
2022-10-06T01:23:07.275Z,98049.06
2022-10-06T01:28:10.737Z,98055.88
2022-10-06T01:33:12.765Z,98052.06
2022-10-06T01:38:15.476Z,98057.03
2022-10-06T01:43:17.386Z,98060.19
2022-10-06T01:48:19.148Z,98068.00
2022-10-06T01:53:21.514Z,98062.84
2022-10-06T01:58:23.527Z,98070.66
2022-10-06T02:03:25.405Z,98071.31
2022-10-06T02:08:28.091Z,98072.97
2022-10-06T02:13:32.629Z,98082.94
2022-10-06T02:18:35.562Z,98068.16
2022-10-06T02:23:37.392Z,98085.53
2022-10-06T02:28:39.309Z,98086.59
2022-10-06T02:33:44.815Z,98078.22
2022-10-06T02:38:47.018Z,98097.03
2022-10-06T02:43:49.517Z,98098.03
2022-10-06T02:48:53.327Z,98106.75
2022-10-06T02:53:55.945Z,98110.94
2022-10-06T02:58:57.647Z,98112.34
2022-10-06T03:04:02.900Z,98113.50
2022-10-06T03:09:07.337Z,98112.69
2022-10-06T03:14:11.345Z,98117.16
2022-10-06T03:19:13.311Z,98120.38
2022-10-06T03:24:17.410Z,98133.22
2022-10-06T03:29:23.707Z,98135.47
2022-10-06T03:34:29.379Z,98141.91
2022-10-06T03:39:34.203Z,98153.25
2022-10-06T03:44:36.895Z,98152.78
2022-10-06T03:49:40.038Z,98160.91
2022-10-06T03:54:41.979Z,98158.75
2022-10-06T03:59:43.767Z,98160.31
2022-10-06T04:04:45.606Z,98171.38
2022-10-06T04:09:47.466Z,98175.38
2022-10-06T04:14:50.645Z,98191.09
2022-10-06T04:19:55.182Z,98199.91
2022-10-06T04:24:56.950Z,98194.94
2022-10-06T04:29:59.131Z,98209.97
2022-10-06T04:35:01.043Z,98213.78
2022-10-06T04:40:03.071Z,98221.41
2022-10-06T04:45:07.737Z,98216.03
2022-10-06T04:50:11.499Z,98221.63
2022-10-06T04:55:21.265Z,98215.59
2022-10-06T05:00:24.073Z,98232.50
2022-10-06T05:05:26.095Z,98246.53
2022-10-06T05:10:29.812Z,98253.53
2022-10-06T05:15:32.346Z,98256.41
2022-10-06T05:20:34.575Z,98270.34
2022-10-06T05:25:37.091Z,98282.38
2022-10-06T05:30:39.100Z,98300.97
2022-10-06T05:35:54.549Z,98310.47
2022-10-06T05:41:26.903Z,98313.06
2022-10-06T05:46:31.573Z,98317.03
2022-10-06T05:51:35.893Z,98304.00
2022-10-06T05:56:42.621Z,98320.56
2022-10-06T06:01:44.792Z,98313.09
2022-10-06T06:07:01.341Z,98315.78
2022-10-06T06:12:03.645Z,98318.13
2022-10-06T06:17:13.594Z,98329.44
2022-10-06T06:22:15.369Z,98342.84
2022-10-06T06:27:20.241Z,98346.59
2022-10-06T06:32:22.498Z,98360.22
2022-10-06T06:37:24.735Z,98364.31
2022-10-06T06:42:26.496Z,98369.44
2022-10-06T06:47:34.976Z,98374.31
2022-10-06T06:52:39.034Z,98396.78
2022-10-06T06:57:46.402Z,98391.41
2022-10-06T07:02:58.762Z,98399.91
2022-10-06T07:08:01.018Z,98403.38
2022-10-06T07:13:04.376Z,98411.56
2022-10-06T07:18:25.028Z,98413.72
2022-10-06T07:23:45.191Z,98424.97
2022-10-06T07:28:53.902Z,98427.97
2022-10-06T07:33:56.059Z,98418.69
2022-10-06T07:38:58.299Z,98421.00
2022-10-06T07:44:02.503Z,98428.31
2022-10-06T07:49:08.386Z,98421.91
2022-10-06T07:54:11.260Z,98432.00
2022-10-06T07:59:36.368Z,98441.53
2022-10-06T08:04:38.164Z,98440.53
2022-10-06T08:09:39.922Z,98442.31
2022-10-06T08:14:41.623Z,98442.69
2022-10-06T08:19:43.486Z,98452.66
2022-10-06T08:25:04.894Z,98452.44
2022-10-06T08:30:07.763Z,98450.03
2022-10-06T08:35:10.705Z,98462.00
2022-10-06T08:40:14.745Z,98462.56
2022-10-06T08:45:38.669Z,98470.88
2022-10-06T08:51:19.598Z,98459.88
2022-10-06T08:56:27.227Z,98466.00
2022-10-06T09:01:47.682Z,98473.16
2022-10-06T09:07:10.678Z,98473.13
2022-10-06T09:12:45.271Z,98467.78
2022-10-06T09:17:54.224Z,98467.91
2022-10-06T09:22:56.887Z,98470.53
2022-10-06T09:28:00.962Z,98482.63
2022-10-06T09:33:05.730Z,98479.84
2022-10-06T09:38:09.226Z,98480.91
2022-10-06T09:43:25.489Z,98479.75
2022-10-06T09:48:27.381Z,98478.59
2022-10-06T09:53:29.072Z,98480.28
2022-10-06T09:58:37.888Z,98478.00
2022-10-06T10:04:08.438Z,98488.38
2022-10-06T10:09:21.765Z,98486.25
2022-10-06T10:14:24.392Z,98488.66
2022-10-06T10:19:36.378Z,98490.03
2022-10-06T10:24:56.430Z,98486.28
2022-10-06T10:30:10.117Z,98489.00
2022-10-06T10:35:20.390Z,98488.78
2022-10-06T10:41:11.569Z,98495.78
2022-10-06T10:46:22.348Z,98491.53
2022-10-06T10:51:56.634Z,98493.44
2022-10-06T10:56:58.690Z,98488.38
2022-10-06T11:02:12.240Z,98489.63
2022-10-06T11:07:23.388Z,98489.22
2022-10-06T11:12:34.255Z,98479.28
2022-10-06T11:17:45.019Z,98485.34
2022-10-06T11:23:14.465Z,98482.59
2022-10-06T11:28:39.374Z,98483.06
2022-10-06T11:33:50.943Z,98482.59
2022-10-06T11:39:02.010Z,98474.81
2022-10-06T11:44:13.567Z,98474.81
2022-10-06T11:49:30.670Z,98478.59
2022-10-06T11:54:38.377Z,98479.53
2022-10-06T11:59:40.116Z,98467.34
2022-10-06T12:05:03.775Z,98460.59
2022-10-06T12:10:27.319Z,98447.72
2022-10-06T12:21:34.039Z,98449.34
2022-10-06T12:26:49.152Z,98451.06
2022-10-06T12:32:04.938Z,98450.00
2022-10-06T12:37:31.281Z,98448.34
2022-10-06T12:42:33.178Z,98443.03
2022-10-06T12:47:41.526Z,98444.44
2022-10-06T12:52:51.517Z,98436.19
2022-10-06T12:57:54.107Z,98441.66
2022-10-06T13:02:58.386Z,98436.34
2022-10-06T13:08:05.989Z,98441.16
2022-10-06T13:13:24.197Z,98432.72
2022-10-06T13:18:28.391Z,98436.59
2022-10-06T13:23:32.925Z,98428.84
2022-10-06T13:28:44.380Z,98439.13
2022-10-06T13:33:49.910Z,98431.63
2022-10-06T13:38:53.262Z,98434.41
2022-10-06T13:44:01.252Z,98431.53
2022-10-06T13:49:12.911Z,98437.94
2022-10-06T13:54:33.374Z,98438.78
2022-10-06T13:59:39.871Z,98433.63
2022-10-06T14:04:41.652Z,98423.25
2022-10-06T14:09:43.454Z,98427.47
2022-10-06T14:14:48.626Z,98430.66
2022-10-06T14:19:51.047Z,98427.78
2022-10-06T14:24:52.871Z,98423.50
2022-10-06T14:29:55.987Z,98423.94
2022-10-06T14:34:57.966Z,98429.84
2022-10-06T14:40:00.012Z,98426.25
2022-10-06T14:45:03.510Z,98428.69
2022-10-06T14:50:05.573Z,98429.91
2022-10-06T14:55:08.140Z,98428.63
2022-10-06T15:00:10.549Z,98426.19
2022-10-06T15:05:13.674Z,98420.72
2022-10-06T15:10:15.462Z,98413.47
2022-10-06T15:15:17.164Z,98417.88
2022-10-06T15:20:18.981Z,98416.84
2022-10-06T15:25:39.539Z,98419.78
2022-10-06T15:30:41.854Z,98415.66
2022-10-06T15:36:00.783Z,98417.13
2022-10-06T15:41:04.466Z,98414.06
2022-10-06T15:46:06.288Z,98412.66
2022-10-06T15:51:08.181Z,98417.19
2022-10-06T15:56:10.510Z,98420.59
2022-10-06T16:01:39.261Z,98421.38
2022-10-06T16:06:50.121Z,98417.66
2022-10-06T16:11:52.203Z,98419.97
2022-10-06T16:17:01.439Z,98413.16
2022-10-06T16:22:09.001Z,98415.25
2022-10-06T16:27:15.184Z,98423.22
2022-10-06T16:32:17.232Z,98437.97
2022-10-06T16:37:18.927Z,98428.88
2022-10-06T16:42:20.672Z,98434.41
2022-10-06T16:47:22.305Z,98438.28
2022-10-06T16:52:24.117Z,98441.91
2022-10-06T16:57:25.961Z,98446.03
2022-10-06T17:02:27.651Z,98448.22
2022-10-06T17:07:29.382Z,98446.25
2022-10-06T17:12:31.063Z,98447.91
2022-10-06T17:17:32.647Z,98452.56
2022-10-06T17:22:34.355Z,98443.16
2022-10-06T17:27:41.119Z,98455.31
2022-10-06T17:32:45.054Z,98447.84
2022-10-06T17:37:46.827Z,98455.31
2022-10-06T17:42:48.496Z,98455.28
2022-10-06T17:47:51.679Z,98453.72
2022-10-06T17:52:53.422Z,98455.97
2022-10-06T17:57:58.939Z,98461.53
2022-10-06T18:03:00.756Z,98462.66
2022-10-06T18:08:02.517Z,98464.88
2022-10-06T18:13:04.272Z,98464.88
2022-10-06T18:18:06.124Z,98464.78
2022-10-06T18:23:09.271Z,98466.38
2022-10-06T18:28:11.966Z,98458.34
2022-10-06T18:38:41.611Z,98461.13
2022-10-06T18:43:44.238Z,98456.69
2022-10-06T18:48:55.232Z,98462.03
2022-10-06T18:54:03.155Z,98457.38
2022-10-06T18:59:13.009Z,98460.78
2022-10-06T19:04:17.775Z,98463.97
2022-10-06T19:09:24.478Z,98458.97
2022-10-06T19:14:32.340Z,98454.50
2022-10-06T19:19:34.055Z,98460.41
2022-10-06T19:24:41.055Z,98469.78
2022-10-06T19:29:50.621Z,98462.59
2022-10-06T19:34:52.429Z,98459.22
2022-10-06T19:39:54.312Z,98460.75
2022-10-06T19:44:55.987Z,98462.22
2022-10-06T19:50:02.043Z,98471.19
2022-10-06T19:55:05.989Z,98470.88
2022-10-06T20:00:10.135Z,98467.50
2022-10-06T20:05:16.579Z,98467.56
2022-10-06T20:10:18.569Z,98475.31
2022-10-06T20:15:20.299Z,98469.38
2022-10-06T20:20:21.894Z,98467.06
2022-10-06T20:25:24.259Z,98463.56
2022-10-06T20:30:26.009Z,98467.72
2022-10-06T20:35:27.870Z,98465.25
2022-10-06T20:40:46.975Z,98463.72
2022-10-06T20:45:48.908Z,98461.97
2022-10-06T20:50:50.609Z,98465.44
2022-10-06T20:55:52.340Z,98468.59
2022-10-06T21:00:54.158Z,98453.59
2022-10-06T21:05:56.058Z,98456.25
2022-10-06T21:10:59.750Z,98451.69
2022-10-06T21:16:02.336Z,98435.97
2022-10-06T21:21:07.637Z,98443.84
2022-10-06T21:26:12.567Z,98446.25
2022-10-06T21:31:18.139Z,98436.94
2022-10-06T21:36:26.801Z,98438.44
2022-10-06T21:41:37.276Z,98435.72
2022-10-06T21:46:47.218Z,98431.69
2022-10-06T21:51:52.251Z,98422.34
2022-10-06T21:56:54.697Z,98423.50
2022-10-06T22:01:56.965Z,98430.91
2022-10-06T22:06:59.033Z,98422.66
2022-10-06T22:12:00.908Z,98415.59
2022-10-06T22:17:04.938Z,98420.91
2022-10-06T22:22:06.745Z,98408.84
2022-10-06T22:27:08.602Z,98399.28
2022-10-06T22:32:10.453Z,98402.75
2022-10-06T22:37:12.255Z,98401.34
2022-10-06T22:42:14.052Z,98394.94
2022-10-06T22:47:17.626Z,98392.44
2022-10-06T22:52:19.706Z,98391.59
2022-10-06T22:57:21.621Z,98380.63
2022-10-06T23:02:23.517Z,98365.81
2022-10-06T23:07:25.542Z,98370.50
2022-10-06T23:12:27.332Z,98362.31
2022-10-06T23:17:29.389Z,98359.94
2022-10-06T23:22:31.237Z,98354.00
2022-10-06T23:27:33.559Z,98353.19
2022-10-06T23:32:37.505Z,98350.94
2022-10-06T23:37:39.537Z,98342.44
2022-10-06T23:42:41.397Z,98341.22
2022-10-06T23:47:43.344Z,98354.84
2022-10-06T23:52:45.436Z,98336.31
2022-10-06T23:57:47.317Z,98340.34
